sensor_id;sensor_type;location;lat;lon;timestamp;pressure;altitude;pressure_sealevel;temperature;humidity
11985;BME280;6052;53.246;10.368;2023-03-30T00:00:40;100395.03;;;10.93;100.00
11985;BME280;6052;53.246;10.368;2023-03-30T00:03:10;100388.03;;;10.92;100.00
11985;BME280;6052;53.246;10.368;2023-03-30T00:05:42;100382.84;;;10.85;100.00
11985;BME280;6052;53.246;10.368;2023-03-30T00:08:12;100381.47;;;10.83;100.00
11985;BME280;6052;53.246;10.368;2023-03-30T00:10:44;100379.44;;;10.73;100.00
11985;BME280;6052;53.246;10.368;2023-03-30T00:13:13;100384.16;;;10.83;100.00
11985;BME280;6052;53.246;10.368;2023-03-30T00:15:43;100382.69;;;10.92;100.00
11985;BME280;6052;53.246;10.368;2023-03-30T00:18:12;100378.22;;;10.81;100.00
11985;BME280;6052;53.246;10.368;2023-03-30T00:20:46;100369.09;;;10.82;100.00
11985;BME280;6052;53.246;10.368;2023-03-30T00:23:16;100372.66;;;10.87;100.00
11985;BME280;6052;53.246;10.368;2023-03-30T00:25:46;100373.00;;;10.91;100.00
11985;BME280;6052;53.246;10.368;2023-03-30T00:28:15;100367.69;;;10.96;100.00
11985;BME280;6052;53.246;10.368;2023-03-30T00:30:45;100372.53;;;11.15;100.00
11985;BME280;6052;53.246;10.368;2023-03-30T00:33:18;100366.97;;;11.22;100.00
11985;BME280;6052;53.246;10.368;2023-03-30T00:36:05;100357.72;;;11.13;100.00
11985;BME280;6052;53.246;10.368;2023-03-30T00:38:35;100351.13;;;11.04;100.00
11985;BME280;6052;53.246;10.368;2023-03-30T00:41:04;100342.28;;;11.03;100.00
11985;BME280;6052;53.246;10.368;2023-03-30T00:43:53;100336.56;;;11.00;100.00
11985;BME280;6052;53.246;10.368;2023-03-30T00:46:23;100337.34;;;10.95;100.00
11985;BME280;6052;53.246;10.368;2023-03-30T00:48:54;100331.06;;;10.90;100.00
11985;BME280;6052;53.246;10.368;2023-03-30T00:51:28;100330.59;;;10.93;100.00
11985;BME280;6052;53.246;10.368;2023-03-30T00:54:01;100320.34;;;10.90;100.00
11985;BME280;6052;53.246;10.368;2023-03-30T00:56:32;100306.22;;;10.78;100.00
11985;BME280;6052;53.246;10.368;2023-03-30T00:59:03;100302.28;;;10.85;100.00
11985;BME280;6052;53.246;10.368;2023-03-30T01:01:32;100278.25;;;10.74;100.00
11985;BME280;6052;53.246;10.368;2023-03-30T01:04:06;100281.63;;;10.86;100.00
11985;BME280;6052;53.246;10.368;2023-03-30T01:06:39;100272.00;;;10.90;100.00
11985;BME280;6052;53.246;10.368;2023-03-30T01:09:12;100267.00;;;10.77;100.00
11985;BME280;6052;53.246;10.368;2023-03-30T01:11:42;100266.31;;;10.86;100.00
11985;BME280;6052;53.246;10.368;2023-03-30T01:14:13;100264.00;;;10.95;100.00
11985;BME280;6052;53.246;10.368;2023-03-30T01:16:48;100259.09;;;10.87;100.00
11985;BME280;6052;53.246;10.368;2023-03-30T01:19:40;100250.47;;;10.85;100.00
11985;BME280;6052;53.246;10.368;2023-03-30T01:22:39;100258.84;;;10.88;100.00
11985;BME280;6052;53.246;10.368;2023-03-30T01:25:34;100249.41;;;10.86;100.00
11985;BME280;6052;53.246;10.368;2023-03-30T01:28:19;100245.59;;;10.82;100.00
11985;BME280;6052;53.246;10.368;2023-03-30T01:31:10;100243.41;;;10.79;100.00
11985;BME280;6052;53.246;10.368;2023-03-30T01:33:59;100243.28;;;10.90;100.00
11985;BME280;6052;53.246;10.368;2023-03-30T01:39:39;100242.41;;;10.85;100.00
11985;BME280;6052;53.246;10.368;2023-03-30T01:42:16;100229.63;;;10.70;100.00
11985;BME280;6052;53.246;10.368;2023-03-30T01:44:52;100233.66;;;10.73;100.00
11985;BME280;6052;53.246;10.368;2023-03-30T01:47:30;100233.38;;;10.91;100.00
11985;BME280;6052;53.246;10.368;2023-03-30T01:50:04;100228.84;;;10.75;100.00
11985;BME280;6052;53.246;10.368;2023-03-30T01:52:39;100221.31;;;10.72;100.00
11985;BME280;6052;53.246;10.368;2023-03-30T01:55:15;100218.38;;;10.73;100.00
11985;BME280;6052;53.246;10.368;2023-03-30T01:57:49;100202.13;;;10.63;100.00
11985;BME280;6052;53.246;10.368;2023-03-30T02:00:21;100212.84;;;10.63;100.00
11985;BME280;6052;53.246;10.368;2023-03-30T02:02:55;100192.97;;;10.59;100.00
11985;BME280;6052;53.246;10.368;2023-03-30T02:05:27;100186.78;;;10.59;100.00
11985;BME280;6052;53.246;10.368;2023-03-30T02:08:02;100194.53;;;10.55;100.00
11985;BME280;6052;53.246;10.368;2023-03-30T02:10:36;100202.94;;;10.64;100.00
11985;BME280;6052;53.246;10.368;2023-03-30T02:13:07;100194.06;;;10.63;100.00
11985;BME280;6052;53.246;10.368;2023-03-30T02:15:39;100191.38;;;10.85;100.00
11985;BME280;6052;53.246;10.368;2023-03-30T02:18:09;100182.19;;;10.76;100.00
11985;BME280;6052;53.246;10.368;2023-03-30T02:20:39;100155.59;;;10.74;100.00
11985;BME280;6052;53.246;10.368;2023-03-30T02:23:09;100148.53;;;10.68;100.00
11985;BME280;6052;53.246;10.368;2023-03-30T02:25:41;100152.53;;;10.66;100.00
11985;BME280;6052;53.246;10.368;2023-03-30T02:28:10;100145.28;;;10.66;100.00
11985;BME280;6052;53.246;10.368;2023-03-30T02:30:42;100158.28;;;10.53;100.00
11985;BME280;6052;53.246;10.368;2023-03-30T02:33:19;100160.97;;;10.53;100.00
11985;BME280;6052;53.246;10.368;2023-03-30T02:36:24;100156.44;;;10.58;100.00
11985;BME280;6052;53.246;10.368;2023-03-30T02:39:08;100156.66;;;10.52;100.00
11985;BME280;6052;53.246;10.368;2023-03-30T02:41:58;100156.97;;;10.55;100.00
11985;BME280;6052;53.246;10.368;2023-03-30T02:44:41;100148.47;;;10.42;100.00
11985;BME280;6052;53.246;10.368;2023-03-30T02:47:19;100130.00;;;10.45;100.00
11985;BME280;6052;53.246;10.368;2023-03-30T02:49:54;100110.50;;;10.55;100.00
11985;BME280;6052;53.246;10.368;2023-03-30T02:52:36;100090.13;;;10.54;100.00
11985;BME280;6052;53.246;10.368;2023-03-30T02:55:13;100103.66;;;10.42;100.00
11985;BME280;6052;53.246;10.368;2023-03-30T02:57:54;100103.97;;;10.46;100.00
11985;BME280;6052;53.246;10.368;2023-03-30T03:00:31;100105.66;;;10.52;100.00
11985;BME280;6052;53.246;10.368;2023-03-30T03:03:07;100100.19;;;10.42;100.00
11985;BME280;6052;53.246;10.368;2023-03-30T03:05:39;100082.78;;;10.44;100.00
11985;BME280;6052;53.246;10.368;2023-03-30T03:08:14;100081.47;;;10.47;100.00
11985;BME280;6052;53.246;10.368;2023-03-30T03:10:44;100083.13;;;10.53;100.00
11985;BME280;6052;53.246;10.368;2023-03-30T03:13:16;100078.56;;;10.53;100.00
11985;BME280;6052;53.246;10.368;2023-03-30T03:15:47;100069.31;;;10.39;100.00
11985;BME280;6052;53.246;10.368;2023-03-30T03:18:21;100066.16;;;10.47;100.00
11985;BME280;6052;53.246;10.368;2023-03-30T03:20:50;100068.78;;;10.42;100.00
11985;BME280;6052;53.246;10.368;2023-03-30T03:23:19;100058.41;;;10.51;100.00
11985;BME280;6052;53.246;10.368;2023-03-30T03:25:49;100038.78;;;10.45;100.00
11985;BME280;6052;53.246;10.368;2023-03-30T03:28:21;100039.81;;;10.39;100.00
11985;BME280;6052;53.246;10.368;2023-03-30T03:30:50;100037.16;;;10.44;100.00
11985;BME280;6052;53.246;10.368;2023-03-30T03:33:20;100039.09;;;10.49;100.00
11985;BME280;6052;53.246;10.368;2023-03-30T03:35:50;100028.66;;;10.52;100.00
11985;BME280;6052;53.246;10.368;2023-03-30T03:38:21;100029.97;;;10.50;100.00
11985;BME280;6052;53.246;10.368;2023-03-30T03:40:51;100028.34;;;10.49;100.00
11985;BME280;6052;53.246;10.368;2023-03-30T03:43:24;100019.72;;;10.42;100.00
11985;BME280;6052;53.246;10.368;2023-03-30T03:45:53;100026.09;;;10.41;100.00
11985;BME280;6052;53.246;10.368;2023-03-30T03:48:24;100015.13;;;10.42;100.00
11985;BME280;6052;53.246;10.368;2023-03-30T03:50:54;100021.25;;;10.38;100.00
11985;BME280;6052;53.246;10.368;2023-03-30T03:53:25;100007.56;;;10.34;100.00
11985;BME280;6052;53.246;10.368;2023-03-30T03:55:55;99997.66;;;10.40;100.00
11985;BME280;6052;53.246;10.368;2023-03-30T03:58:27;100005.72;;;10.40;100.00
11985;BME280;6052;53.246;10.368;2023-03-30T04:00:57;99994.84;;;10.51;100.00
11985;BME280;6052;53.246;10.368;2023-03-30T04:03:28;100002.94;;;10.56;100.00
11985;BME280;6052;53.246;10.368;2023-03-30T04:05:58;100005.28;;;10.48;100.00
11985;BME280;6052;53.246;10.368;2023-03-30T04:08:29;99997.28;;;10.53;100.00
11985;BME280;6052;53.246;10.368;2023-03-30T04:11:03;99993.19;;;10.45;100.00
11985;BME280;6052;53.246;10.368;2023-03-30T04:13:36;99993.72;;;10.47;100.00
11985;BME280;6052;53.246;10.368;2023-03-30T04:16:07;99982.53;;;10.55;100.00
11985;BME280;6052;53.246;10.368;2023-03-30T04:18:36;99966.47;;;10.60;100.00
11985;BME280;6052;53.246;10.368;2023-03-30T04:21:07;99966.72;;;10.59;100.00
11985;BME280;6052;53.246;10.368;2023-03-30T04:23:38;99957.97;;;10.68;100.00
11985;BME280;6052;53.246;10.368;2023-03-30T04:26:11;99952.00;;;10.61;100.00
11985;BME280;6052;53.246;10.368;2023-03-30T04:28:45;99953.47;;;10.79;100.00
11985;BME280;6052;53.246;10.368;2023-03-30T04:31:19;99942.59;;;10.95;100.00
11985;BME280;6052;53.246;10.368;2023-03-30T04:33:49;99939.00;;;10.80;100.00
11985;BME280;6052;53.246;10.368;2023-03-30T04:36:20;99941.59;;;10.70;100.00
11985;BME280;6052;53.246;10.368;2023-03-30T04:38:49;99942.03;;;10.88;100.00
11985;BME280;6052;53.246;10.368;2023-03-30T04:44:08;99930.53;;;10.61;100.00
11985;BME280;6052;53.246;10.368;2023-03-30T04:46:37;99925.13;;;10.56;100.00
11985;BME280;6052;53.246;10.368;2023-03-30T04:49:07;99937.50;;;10.62;100.00
11985;BME280;6052;53.246;10.368;2023-03-30T04:51:36;99916.66;;;10.69;100.00
11985;BME280;6052;53.246;10.368;2023-03-30T04:54:08;99928.72;;;10.67;100.00
11985;BME280;6052;53.246;10.368;2023-03-30T04:56:37;99922.56;;;10.71;100.00
11985;BME280;6052;53.246;10.368;2023-03-30T04:59:09;99922.31;;;10.73;100.00
11985;BME280;6052;53.246;10.368;2023-03-30T05:01:38;99915.81;;;10.69;100.00
11985;BME280;6052;53.246;10.368;2023-03-30T05:04:08;99908.31;;;10.66;100.00
11985;BME280;6052;53.246;10.368;2023-03-30T05:06:37;99909.75;;;10.78;100.00
11985;BME280;6052;53.246;10.368;2023-03-30T05:09:07;99897.28;;;10.67;100.00
11985;BME280;6052;53.246;10.368;2023-03-30T05:11:36;99899.78;;;10.79;100.00
11985;BME280;6052;53.246;10.368;2023-03-30T05:14:08;99898.56;;;10.60;100.00
11985;BME280;6052;53.246;10.368;2023-03-30T05:16:38;99895.13;;;10.64;100.00
11985;BME280;6052;53.246;10.368;2023-03-30T05:19:07;99895.06;;;10.54;100.00
11985;BME280;6052;53.246;10.368;2023-03-30T05:21:37;99894.50;;;10.52;100.00
11985;BME280;6052;53.246;10.368;2023-03-30T05:24:07;99886.84;;;10.66;100.00
11985;BME280;6052;53.246;10.368;2023-03-30T05:26:36;99883.13;;;10.72;100.00
11985;BME280;6052;53.246;10.368;2023-03-30T05:29:09;99874.00;;;10.73;100.00
11985;BME280;6052;53.246;10.368;2023-03-30T05:31:39;99874.91;;;10.88;100.00
11985;BME280;6052;53.246;10.368;2023-03-30T05:34:08;99860.97;;;10.96;100.00
11985;BME280;6052;53.246;10.368;2023-03-30T05:36:37;99865.97;;;10.78;100.00
11985;BME280;6052;53.246;10.368;2023-03-30T05:39:07;99876.97;;;10.76;100.00
11985;BME280;6052;53.246;10.368;2023-03-30T05:41:36;99892.03;;;10.82;100.00
11985;BME280;6052;53.246;10.368;2023-03-30T05:44:08;99896.69;;;10.92;100.00
11985;BME280;6052;53.246;10.368;2023-03-30T05:46:38;99901.22;;;10.91;100.00
11985;BME280;6052;53.246;10.368;2023-03-30T05:49:07;99895.28;;;10.84;100.00
11985;BME280;6052;53.246;10.368;2023-03-30T05:51:37;99902.25;;;10.85;100.00
11985;BME280;6052;53.246;10.368;2023-03-30T05:54:09;99897.19;;;10.89;100.00
11985;BME280;6052;53.246;10.368;2023-03-30T05:56:39;99903.16;;;10.96;100.00
11985;BME280;6052;53.246;10.368;2023-03-30T05:59:11;99889.94;;;10.89;100.00
11985;BME280;6052;53.246;10.368;2023-03-30T06:01:41;99882.22;;;10.98;100.00
11985;BME280;6052;53.246;10.368;2023-03-30T06:04:11;99890.41;;;11.23;100.00
11985;BME280;6052;53.246;10.368;2023-03-30T06:06:42;99891.53;;;11.32;100.00
11985;BME280;6052;53.246;10.368;2023-03-30T06:09:11;99883.50;;;11.42;100.00
11985;BME280;6052;53.246;10.368;2023-03-30T06:11:41;99869.25;;;11.36;100.00
11985;BME280;6052;53.246;10.368;2023-03-30T06:14:13;99870.06;;;11.37;100.00
11985;BME280;6052;53.246;10.368;2023-03-30T06:16:42;99870.09;;;11.47;100.00
11985;BME280;6052;53.246;10.368;2023-03-30T06:19:12;99865.53;;;11.47;100.00
11985;BME280;6052;53.246;10.368;2023-03-30T06:21:41;99870.38;;;11.50;100.00
11985;BME280;6052;53.246;10.368;2023-03-30T06:24:11;99861.78;;;11.48;100.00
11985;BME280;6052;53.246;10.368;2023-03-30T06:26:40;99877.66;;;11.50;100.00
11985;BME280;6052;53.246;10.368;2023-03-30T06:29:09;99870.38;;;11.50;100.00
11985;BME280;6052;53.246;10.368;2023-03-30T06:31:42;99870.69;;;11.54;100.00
11985;BME280;6052;53.246;10.368;2023-03-30T06:34:12;99867.97;;;11.44;100.00
11985;BME280;6052;53.246;10.368;2023-03-30T06:36:41;99871.47;;;11.54;100.00
11985;BME280;6052;53.246;10.368;2023-03-30T06:39:12;99873.88;;;11.46;100.00
11985;BME280;6052;53.246;10.368;2023-03-30T06:41:42;99877.06;;;11.43;100.00
11985;BME280;6052;53.246;10.368;2023-03-30T06:44:12;99878.19;;;11.52;100.00
11985;BME280;6052;53.246;10.368;2023-03-30T06:46:45;99869.84;;;11.48;100.00
11985;BME280;6052;53.246;10.368;2023-03-30T06:49:15;99866.63;;;11.46;100.00
11985;BME280;6052;53.246;10.368;2023-03-30T06:51:44;99864.72;;;11.47;100.00
11985;BME280;6052;53.246;10.368;2023-03-30T06:54:14;99854.00;;;11.57;100.00
11985;BME280;6052;53.246;10.368;2023-03-30T06:56:46;99848.09;;;11.50;100.00
11985;BME280;6052;53.246;10.368;2023-03-30T06:59:15;99849.97;;;11.54;100.00
11985;BME280;6052;53.246;10.368;2023-03-30T07:01:47;99850.53;;;11.51;100.00
11985;BME280;6052;53.246;10.368;2023-03-30T07:04:17;99848.44;;;11.63;100.00
11985;BME280;6052;53.246;10.368;2023-03-30T07:06:47;99851.66;;;11.65;100.00
11985;BME280;6052;53.246;10.368;2023-03-30T07:09:17;99856.78;;;11.72;100.00
11985;BME280;6052;53.246;10.368;2023-03-30T07:11:46;99836.34;;;11.66;100.00
11985;BME280;6052;53.246;10.368;2023-03-30T07:14:16;99833.41;;;11.72;100.00
11985;BME280;6052;53.246;10.368;2023-03-30T07:16:49;99830.72;;;11.77;100.00
11985;BME280;6052;53.246;10.368;2023-03-30T07:19:18;99833.94;;;11.74;100.00
11985;BME280;6052;53.246;10.368;2023-03-30T07:21:48;99837.44;;;11.80;100.00
11985;BME280;6052;53.246;10.368;2023-03-30T07:24:17;99842.59;;;11.91;100.00
11985;BME280;6052;53.246;10.368;2023-03-30T07:26:47;99843.69;;;11.95;100.00
11985;BME280;6052;53.246;10.368;2023-03-30T07:29:16;99834.25;;;11.98;100.00
11985;BME280;6052;53.246;10.368;2023-03-30T07:31:48;99844.47;;;12.01;100.00
11985;BME280;6052;53.246;10.368;2023-03-30T07:34:18;99840.19;;;12.10;100.00
11985;BME280;6052;53.246;10.368;2023-03-30T07:36:47;99837.50;;;12.15;100.00
11985;BME280;6052;53.246;10.368;2023-03-30T07:39:17;99838.03;;;12.17;100.00
11985;BME280;6052;53.246;10.368;2023-03-30T07:41:47;99842.06;;;12.19;100.00
11985;BME280;6052;53.246;10.368;2023-03-30T07:44:17;99862.53;;;12.20;100.00
11985;BME280;6052;53.246;10.368;2023-03-30T07:46:49;99865.50;;;12.19;100.00
11985;BME280;6052;53.246;10.368;2023-03-30T07:49:19;99860.91;;;12.19;100.00
11985;BME280;6052;53.246;10.368;2023-03-30T07:51:48;99857.94;;;12.26;100.00
11985;BME280;6052;53.246;10.368;2023-03-30T07:54:18;99861.19;;;12.28;100.00
11985;BME280;6052;53.246;10.368;2023-03-30T07:56:47;99863.88;;;12.28;100.00
11985;BME280;6052;53.246;10.368;2023-03-30T07:59:18;99864.97;;;12.27;100.00
11985;BME280;6052;53.246;10.368;2023-03-30T08:01:50;99861.97;;;12.28;100.00
11985;BME280;6052;53.246;10.368;2023-03-30T08:04:20;99859.03;;;12.30;100.00
11985;BME280;6052;53.246;10.368;2023-03-30T08:06:52;99863.31;;;12.31;100.00
11985;BME280;6052;53.246;10.368;2023-03-30T08:09:21;99881.91;;;12.32;100.00
11985;BME280;6052;53.246;10.368;2023-03-30T08:11:51;99869.53;;;12.36;100.00
11985;BME280;6052;53.246;10.368;2023-03-30T08:14:20;99868.19;;;12.34;100.00
11985;BME280;6052;53.246;10.368;2023-03-30T08:16:55;99873.56;;;12.39;100.00
11985;BME280;6052;53.246;10.368;2023-03-30T08:19:25;99871.41;;;12.36;100.00
11985;BME280;6052;53.246;10.368;2023-03-30T08:21:54;99873.31;;;12.40;100.00
11985;BME280;6052;53.246;10.368;2023-03-30T08:24:27;99870.63;;;12.35;100.00
11985;BME280;6052;53.246;10.368;2023-03-30T08:26:56;99853.66;;;12.40;100.00
11985;BME280;6052;53.246;10.368;2023-03-30T08:29:26;99852.56;;;12.41;100.00
11985;BME280;6052;53.246;10.368;2023-03-30T08:31:59;99849.59;;;12.47;100.00
11985;BME280;6052;53.246;10.368;2023-03-30T08:34:29;99854.72;;;12.54;100.00
11985;BME280;6052;53.246;10.368;2023-03-30T08:37:01;99857.41;;;12.49;100.00
11985;BME280;6052;53.246;10.368;2023-03-30T08:39:31;99869.00;;;12.49;100.00
11985;BME280;6052;53.246;10.368;2023-03-30T08:42:15;99863.88;;;12.53;100.00
11985;BME280;6052;53.246;10.368;2023-03-30T08:44:55;99861.47;;;12.51;100.00
11985;BME280;6052;53.246;10.368;2023-03-30T08:47:37;99856.59;;;12.53;100.00
11985;BME280;6052;53.246;10.368;2023-03-30T08:50:13;99849.34;;;12.59;100.00
11985;BME280;6052;53.246;10.368;2023-03-30T08:52:44;99860.09;;;12.64;100.00
11985;BME280;6052;53.246;10.368;2023-03-30T08:55:20;99860.66;;;12.71;100.00
11985;BME280;6052;53.246;10.368;2023-03-30T08:57:54;99853.09;;;12.73;100.00
11985;BME280;6052;53.246;10.368;2023-03-30T09:00:36;99849.31;;;12.69;100.00
11985;BME280;6052;53.246;10.368;2023-03-30T09:03:15;99850.41;;;12.78;100.00
11985;BME280;6052;53.246;10.368;2023-03-30T09:05:50;99856.56;;;12.93;100.00
11985;BME280;6052;53.246;10.368;2023-03-30T09:08:24;99852.50;;;13.11;100.00
11985;BME280;6052;53.246;10.368;2023-03-30T09:10:58;99845.78;;;13.13;100.00
11985;BME280;6052;53.246;10.368;2023-03-30T09:13:31;99843.88;;;13.14;100.00
11985;BME280;6052;53.246;10.368;2023-03-30T09:16:09;99826.06;;;13.23;100.00
11985;BME280;6052;53.246;10.368;2023-03-30T09:18:45;99824.69;;;13.30;100.00
11985;BME280;6052;53.246;10.368;2023-03-30T09:21:17;99828.97;;;13.31;100.00
11985;BME280;6052;53.246;10.368;2023-03-30T09:23:49;99822.22;;;13.44;100.00
11985;BME280;6052;53.246;10.368;2023-03-30T09:26:25;99824.59;;;13.50;100.00
11985;BME280;6052;53.246;10.368;2023-03-30T09:28:59;99824.59;;;13.50;100.00
11985;BME280;6052;53.246;10.368;2023-03-30T09:31:35;99817.81;;;13.58;100.00
11985;BME280;6052;53.246;10.368;2023-03-30T09:34:23;99816.44;;;13.60;100.00
11985;BME280;6052;53.246;10.368;2023-03-30T09:36:55;99822.09;;;13.64;100.00
11985;BME280;6052;53.246;10.368;2023-03-30T09:39:27;99815.81;;;13.78;100.00
11985;BME280;6052;53.246;10.368;2023-03-30T09:42:10;99834.88;;;13.92;100.00
11985;BME280;6052;53.246;10.368;2023-03-30T09:44:46;99811.66;;;13.91;100.00
11985;BME280;6052;53.246;10.368;2023-03-30T09:47:24;99814.34;;;13.96;100.00
11985;BME280;6052;53.246;10.368;2023-03-30T09:49:57;99820.78;;;14.00;100.00
11985;BME280;6052;53.246;10.368;2023-03-30T09:52:29;99815.94;;;13.97;100.00
11985;BME280;6052;53.246;10.368;2023-03-30T09:55:18;99797.84;;;14.02;100.00
11985;BME280;6052;53.246;10.368;2023-03-30T09:57:52;99807.78;;;14.07;100.00
11985;BME280;6052;53.246;10.368;2023-03-30T10:00:25;99805.88;;;14.07;100.00
11985;BME280;6052;53.246;10.368;2023-03-30T10:02:58;99796.63;;;14.18;100.00
11985;BME280;6052;53.246;10.368;2023-03-30T10:05:32;99809.84;;;14.25;100.00
11985;BME280;6052;53.246;10.368;2023-03-30T10:08:04;99805.00;;;14.22;100.00
11985;BME280;6052;53.246;10.368;2023-03-30T10:10:35;99814.72;;;14.23;100.00
11985;BME280;6052;53.246;10.368;2023-03-30T10:13:10;99805.53;;;14.24;100.00
11985;BME280;6052;53.246;10.368;2023-03-30T10:15:42;99809.00;;;14.29;100.00
11985;BME280;6052;53.246;10.368;2023-03-30T10:18:25;99811.72;;;14.29;100.00
11985;BME280;6052;53.246;10.368;2023-03-30T10:21:03;99815.66;;;14.42;100.00
11985;BME280;6052;53.246;10.368;2023-03-30T10:23:34;99818.91;;;14.39;100.00
11985;BME280;6052;53.246;10.368;2023-03-30T10:26:11;99819.19;;;14.37;100.00
11985;BME280;6052;53.246;10.368;2023-03-30T10:28:50;99811.81;;;14.48;100.00
11985;BME280;6052;53.246;10.368;2023-03-30T10:31:21;99802.38;;;14.45;100.00
11985;BME280;6052;53.246;10.368;2023-03-30T10:33:55;99798.34;;;14.43;100.00
11985;BME280;6052;53.246;10.368;2023-03-30T10:36:31;99809.38;;;14.46;100.00
11985;BME280;6052;53.246;10.368;2023-03-30T10:39:07;99810.72;;;14.49;100.00
11985;BME280;6052;53.246;10.368;2023-03-30T10:41:40;99802.47;;;14.64;100.00
11985;BME280;6052;53.246;10.368;2023-03-30T10:44:18;99791.16;;;14.62;100.00
11985;BME280;6052;53.246;10.368;2023-03-30T10:46:51;99790.66;;;14.55;100.00
11985;BME280;6052;53.246;10.368;2023-03-30T10:49:32;99794.19;;;14.55;100.00
11985;BME280;6052;53.246;10.368;2023-03-30T10:52:14;99790.72;;;14.50;100.00
11985;BME280;6052;53.246;10.368;2023-03-30T10:54:48;99800.41;;;14.51;100.00
11985;BME280;6052;53.246;10.368;2023-03-30T10:57:28;99797.47;;;14.47;100.00
11985;BME280;6052;53.246;10.368;2023-03-30T11:00:20;99808.50;;;14.51;100.00
11985;BME280;6052;53.246;10.368;2023-03-30T11:02:58;99810.53;;;14.40;100.00
11985;BME280;6052;53.246;10.368;2023-03-30T11:05:31;99804.94;;;14.32;100.00
11985;BME280;6052;53.246;10.368;2023-03-30T11:08:05;99803.25;;;14.36;100.00
11985;BME280;6052;53.246;10.368;2023-03-30T11:10:37;99797.25;;;14.44;100.00
11985;BME280;6052;53.246;10.368;2023-03-30T11:13:12;99803.66;;;14.53;100.00
11985;BME280;6052;53.246;10.368;2023-03-30T11:15:46;99796.88;;;14.55;100.00
11985;BME280;6052;53.246;10.368;2023-03-30T11:18:21;99795.78;;;14.56;100.00
11985;BME280;6052;53.246;10.368;2023-03-30T11:20:59;99792.19;;;14.66;100.00
11985;BME280;6052;53.246;10.368;2023-03-30T11:23:37;99786.16;;;14.74;100.00
11985;BME280;6052;53.246;10.368;2023-03-30T11:26:09;99780.56;;;14.89;100.00
11985;BME280;6052;53.246;10.368;2023-03-30T11:28:47;99777.88;;;14.89;100.00
11985;BME280;6052;53.246;10.368;2023-03-30T11:31:32;99785.09;;;14.98;100.00
11985;BME280;6052;53.246;10.368;2023-03-30T11:34:11;99775.38;;;14.97;100.00
11985;BME280;6052;53.246;10.368;2023-03-30T11:36:49;99780.22;;;15.19;100.00
11985;BME280;6052;53.246;10.368;2023-03-30T11:39:29;99772.59;;;15.02;100.00
11985;BME280;6052;53.246;10.368;2023-03-30T11:42:04;99766.09;;;15.03;100.00
11985;BME280;6052;53.246;10.368;2023-03-30T11:44:37;99739.72;;;15.14;100.00
11985;BME280;6052;53.246;10.368;2023-03-30T11:50:51;99734.50;;;15.22;100.00
11985;BME280;6052;53.246;10.368;2023-03-30T11:53:31;99721.63;;;15.33;100.00
11985;BME280;6052;53.246;10.368;2023-03-30T11:56:07;99731.41;;;15.29;100.00
11985;BME280;6052;53.246;10.368;2023-03-30T11:58:42;99738.97;;;15.32;100.00
11985;BME280;6052;53.246;10.368;2023-03-30T12:01:26;99728.78;;;15.47;100.00
11985;BME280;6052;53.246;10.368;2023-03-30T12:04:04;99731.34;;;15.39;100.00
11985;BME280;6052;53.246;10.368;2023-03-30T12:06:37;99743.53;;;15.36;100.00
11985;BME280;6052;53.246;10.368;2023-03-30T12:09:23;99726.06;;;15.47;100.00
11985;BME280;6052;53.246;10.368;2023-03-30T12:12:02;99734.97;;;15.48;100.00
11985;BME280;6052;53.246;10.368;2023-03-30T12:14:48;99735.28;;;15.65;99.46
11985;BME280;6052;53.246;10.368;2023-03-30T12:17:38;99730.22;;;15.58;98.81
11985;BME280;6052;53.246;10.368;2023-03-30T12:20:16;99732.19;;;15.53;100.00
11985;BME280;6052;53.246;10.368;2023-03-30T12:22:51;99726.00;;;15.52;99.95
11985;BME280;6052;53.246;10.368;2023-03-30T12:25:30;99756.84;;;15.51;100.00
11985;BME280;6052;53.246;10.368;2023-03-30T12:28:10;99765.59;;;15.43;100.00
11985;BME280;6052;53.246;10.368;2023-03-30T12:30:42;99856.84;;;14.86;100.00
11985;BME280;6052;53.246;10.368;2023-03-30T12:33:17;99859.44;;;14.34;100.00
11985;BME280;6052;53.246;10.368;2023-03-30T12:35:56;99852.25;;;14.14;100.00
11985;BME280;6052;53.246;10.368;2023-03-30T12:38:35;99826.56;;;14.27;100.00
11985;BME280;6052;53.246;10.368;2023-03-30T12:41:10;99827.41;;;14.51;100.00
11985;BME280;6052;53.246;10.368;2023-03-30T12:44:07;99834.25;;;14.43;100.00
11985;BME280;6052;53.246;10.368;2023-03-30T12:46:52;99827.00;;;14.39;100.00
11985;BME280;6052;53.246;10.368;2023-03-30T12:49:33;99829.66;;;14.44;100.00
11985;BME280;6052;53.246;10.368;2023-03-30T12:52:09;99825.81;;;14.50;100.00
11985;BME280;6052;53.246;10.368;2023-03-30T12:55:09;99826.41;;;14.47;100.00
11985;BME280;6052;53.246;10.368;2023-03-30T13:00:43;99829.94;;;14.42;100.00
11985;BME280;6052;53.246;10.368;2023-03-30T13:03:25;99830.94;;;14.51;100.00
11985;BME280;6052;53.246;10.368;2023-03-30T13:05:58;99829.06;;;14.52;100.00
11985;BME280;6052;53.246;10.368;2023-03-30T13:08:32;99829.81;;;14.57;100.00
11985;BME280;6052;53.246;10.368;2023-03-30T13:11:10;99836.84;;;14.58;100.00
11985;BME280;6052;53.246;10.368;2023-03-30T13:13:45;99845.16;;;14.62;100.00
11985;BME280;6052;53.246;10.368;2023-03-30T13:17:04;99831.63;;;14.67;100.00
11985;BME280;6052;53.246;10.368;2023-03-30T13:19:44;99843.56;;;14.61;100.00
11985;BME280;6052;53.246;10.368;2023-03-30T13:22:27;99830.56;;;14.63;100.00
11985;BME280;6052;53.246;10.368;2023-03-30T13:24:59;99830.00;;;14.66;100.00
11985;BME280;6052;53.246;10.368;2023-03-30T13:27:32;99835.38;;;14.71;100.00
11985;BME280;6052;53.246;10.368;2023-03-30T13:30:03;99821.38;;;14.64;100.00
11985;BME280;6052;53.246;10.368;2023-03-30T13:32:52;99831.75;;;14.80;100.00
11985;BME280;6052;53.246;10.368;2023-03-30T13:35:30;99839.84;;;14.80;100.00